METAR Portugal - 23 Oct 2017 - 0948 UTC - RocketRoute WX - rrwx.com
LPFR 230930Z 08008KT 030V120 CAVOK 22/13 Q1023 LPPT 230930Z 07007KT 030V100 CAVOK 17/09 Q1025 LPMA 230930Z 02009KT 9999 BKN015 SCT030 21/13 Q1023 LPPD 230930Z 21014KT 9999 FEW010 BKN030 21/19 Q1021 LPPR 230930Z 09006KT CAVOK 18/09 Q1026 LPPS 230930Z 06008KT 030V090 9999 BKN015 21/13 Q1023 LPAZ 230930Z 17011KT 9999 FEW024 BKN034 21/17 Q1022 LPST 230900Z VRB01KT CAVOK 14/10 Q1025

RocketRoute WX - rrwx.com weather for pilots